Time;durP1;ratioP1;P1;durP2;ratioP2;P2;SDS_P1;SDS_P2;PMS_P1;PMS_P2;Temp;Humidity;BMP_temperature;BMP_pressure;BME280_temperature;BME280_humidity;BME280_pressure;Samples;Min_cycle;Max_cycle;Signal;HPM_P1;HPM_P2
2022/06/10 00:00:29;;;;;;;15.30;10.82;;;12.90;99.90;;;;;;5043514;28;20029;-65
2022/06/10 00:02:55;;;;;;;17.05;10.57;;;12.90;99.90;;;;;;5040988;28;20536;-65
2022/06/10 00:05:23;;;;;;;15.55;10.48;;;12.80;99.90;;;;;;5043336;28;20036;-64
2022/06/10 00:07:50;;;;;;;18.00;10.63;;;12.80;99.90;;;;;;5044909;28;20060;-64
2022/06/10 00:10:19;;;;;;;13.88;10.63;;;12.90;99.90;;;;;;5049745;28;20021;-64
2022/06/10 00:12:46;;;;;;;16.88;11.30;;;13.00;99.90;;;;;;5038307;28;20017;-64
2022/06/10 00:15:12;;;;;;;16.58;10.60;;;12.90;99.90;;;;;;5049321;28;20025;-64
2022/06/10 00:17:38;;;;;;;15.95;10.43;;;12.90;99.90;;;;;;5043479;28;20487;-64
2022/06/10 00:20:05;;;;;;;19.00;10.60;;;13.00;99.90;;;;;;5047998;28;20035;-65
2022/06/10 00:22:31;;;;;;;14.07;9.38;;;13.00;99.90;;;;;;5042257;28;20020;-64
2022/06/10 00:24:56;;;;;;;20.60;10.55;;;13.00;99.90;;;;;;5043804;28;20079;-64
2022/06/10 00:27:22;;;;;;;18.83;11.70;;;12.90;99.90;;;;;;5046293;28;20044;-64
2022/06/10 00:29:48;;;;;;;12.98;9.70;;;12.90;99.90;;;;;;5045587;28;20029;-65
2022/06/10 00:32:14;;;;;;;12.65;9.48;;;12.80;99.90;;;;;;5048370;28;20025;-65
2022/06/10 00:34:40;;;;;;;16.55;9.75;;;12.80;99.90;;;;;;5044851;28;20049;-65
2022/06/10 00:37:06;;;;;;;22.77;9.48;;;12.80;99.90;;;;;;5044332;28;20057;-65
2022/06/10 00:39:34;;;;;;;16.92;9.35;;;12.70;99.90;;;;;;5048405;28;20028;-65
2022/06/10 00:42:04;;;;;;;15.23;9.13;;;12.70;99.90;;;;;;5044436;28;20116;-64
2022/06/10 00:44:33;;;;;;;14.48;9.23;;;12.70;99.90;;;;;;5046568;28;20043;-64
2022/06/10 00:47:01;;;;;;;15.25;9.40;;;12.60;99.90;;;;;;5039802;28;20037;-65
2022/06/10 00:49:28;;;;;;;15.88;9.07;;;12.50;99.90;;;;;;5040953;28;20817;-65
2022/06/10 00:51:55;;;;;;;14.88;9.07;;;12.40;99.90;;;;;;5038860;28;20021;-66
2022/06/10 00:54:37;;;;;;;21.15;10.15;;;12.40;99.90;;;;;;5041293;28;20013;-65
2022/06/10 00:57:21;;;;;;;13.98;9.40;;;12.40;99.90;;;;;;5046480;28;20036;-65
2022/06/10 01:00:05;;;;;;;15.23;9.90;;;12.30;99.90;;;;;;5046151;28;20184;-65
2022/06/10 01:02:32;;;;;;;;;;;12.30;99.90;;;;;;5042066;28;20040;-65
2022/06/10 01:05:00;;;;;;;14.13;8.93;;;12.30;99.90;;;;;;5041377;28;19940;-65
2022/06/10 01:07:32;;;;;;;15.43;9.30;;;12.20;99.90;;;;;;5045291;28;20025;-65
2022/06/10 01:09:59;;;;;;;16.67;9.90;;;12.30;99.90;;;;;;5035414;28;20093;-65
2022/06/10 01:12:58;;;;;;;15.15;8.35;;;12.30;99.90;;;;;;5042227;28;20025;-65
2022/06/10 01:15:51;;;;;;;11.57;9.27;;;12.30;99.90;;;;;;5042279;28;20028;-66
2022/06/10 01:18:34;;;;;;;16.30;9.82;;;12.30;99.90;;;;;;5042166;28;20079;-65
2022/06/10 01:21:07;;;;;;;13.38;8.13;;;12.20;99.90;;;;;;5045359;28;20091;-65
2022/06/10 01:23:48;;;;;;;13.00;9.00;;;12.20;99.90;;;;;;5034068;28;20029;-65
2022/06/10 01:26:29;;;;;;;16.02;9.45;;;12.10;99.90;;;;;;5039126;28;20039;-65
2022/06/10 01:29:14;;;;;;;17.48;9.95;;;12.10;99.90;;;;;;5037243;28;20561;-65
2022/06/10 01:31:50;;;;;;;15.55;8.30;;;12.00;99.90;;;;;;5041142;28;20102;-65
2022/06/10 01:34:26;;;;;;;18.90;9.15;;;12.00;99.90;;;;;;5042941;28;20031;-65
2022/06/10 01:37:13;;;;;;;11.95;8.45;;;12.00;99.90;;;;;;5042127;28;20395;-65
2022/06/10 01:40:14;;;;;;;13.77;9.23;;;12.00;99.90;;;;;;5045558;28;20036;-65
2022/06/10 01:42:47;;;;;;;18.58;9.48;;;12.00;99.90;;;;;;5039269;28;20498;-65
2022/06/10 01:45:22;;;;;;;16.83;10.65;;;12.00;99.90;;;;;;5045337;28;20037;-65
2022/06/10 01:48:09;;;;;;;16.70;9.48;;;11.90;99.90;;;;;;5045173;28;20040;-65
2022/06/10 01:50:58;;;;;;;27.83;10.77;;;11.90;99.90;;;;;;5043603;28;20036;-65
2022/06/10 01:53:34;;;;;;;16.15;10.00;;;11.90;99.90;;;;;;5041396;28;20359;-64
2022/06/10 01:56:18;;;;;;;15.90;8.93;;;12.00;99.90;;;;;;5039993;28;20044;-63
2022/06/10 01:58:49;;;;;;;12.60;9.10;;;12.00;99.90;;;;;;5043112;28;20021;-65
2022/06/10 02:01:27;;;;;;;18.40;9.80;;;11.90;99.90;;;;;;5038014;28;20056;-63
2022/06/10 02:04:00;;;;;;;15.88;9.38;;;11.90;99.90;;;;;;5043192;28;20021;-65
2022/06/10 02:06:35;;;;;;;15.40;10.15;;;11.80;99.90;;;;;;5043160;28;20118;-65
2022/06/10 02:09:09;;;;;;;17.30;10.02;;;11.70;99.90;;;;;;5046026;28;20032;-63
2022/06/10 02:11:38;;;;;;;14.15;9.68;;;11.70;99.90;;;;;;5045822;28;20750;-64
2022/06/10 02:14:13;;;;;;;23.33;12.45;;;11.60;99.90;;;;;;5042998;28;20457;-64
2022/06/10 02:16:43;;;;;;;22.67;10.70;;;11.50;99.90;;;;;;5046428;28;20017;-64
2022/06/10 02:19:19;;;;;;;22.65;9.75;;;11.50;99.90;;;;;;5045559;28;20098;-63
2022/06/10 02:21:59;;;;;;;23.02;10.32;;;11.60;99.90;;;;;;5040572;28;20438;-64
2022/06/10 02:24:35;;;;;;;18.23;11.30;;;11.60;99.90;;;;;;5045415;28;20063;-64
2022/06/10 02:27:06;;;;;;;17.40;10.88;;;11.60;99.90;;;;;;5042061;28;20028;-63
2022/06/10 02:29:40;;;;;;;20.83;10.13;;;11.50;99.90;;;;;;5042185;28;20022;-63
2022/06/10 02:32:06;;;;;;;15.30;10.68;;;11.50;99.90;;;;;;5042671;28;20392;-63
2022/06/10 02:34:32;;;;;;;17.45;10.40;;;11.40;99.90;;;;;;5040295;28;20466;-63
2022/06/10 02:37:22;;;;;;;26.40;10.48;;;11.40;99.90;;;;;;5045186;28;20322;-64
2022/06/10 02:40:00;;;;;;;16.50;10.85;;;11.40;99.90;;;;;;5042160;28;20028;-64
2022/06/10 02:42:42;;;;;;;25.42;11.73;;;11.30;99.90;;;;;;5043394;28;20029;-64
2022/06/10 02:45:26;;;;;;;17.98;10.93;;;11.30;99.90;;;;;;5047245;28;20035;-64
2022/06/10 02:48:00;;;;;;;19.15;11.48;;;11.30;99.90;;;;;;5041896;28;20403;-64
2022/06/10 02:50:26;;;;;;;20.50;10.80;;;11.20;99.90;;;;;;5043045;28;20486;-63
2022/06/10 02:52:52;;;;;;;15.77;10.63;;;11.20;99.90;;;;;;5045417;28;20040;-64
2022/06/10 02:55:22;;;;;;;16.92;10.88;;;11.20;99.90;;;;;;5039697;28;20059;-65
2022/06/10 03:04:04;;;;;;;17.92;10.82;;;11.20;99.90;;;;;;5037753;28;20087;-65
2022/06/10 03:06:43;;;;;;;25.50;11.82;;;11.20;99.90;;;;;;5040340;28;20021;-64
2022/06/10 03:09:20;;;;;;;16.88;10.20;;;11.20;99.90;;;;;;5034568;28;20041;-63
2022/06/10 03:11:49;;;;;;;20.48;10.40;;;11.20;99.90;;;;;;5042340;28;20463;-64
2022/06/10 03:14:54;;;;;;;18.70;9.77;;;11.20;99.90;;;;;;5039198;28;20029;-64
2022/06/10 03:18:01;;;;;;;16.98;9.75;;;11.20;99.90;;;;;;5008473;28;20086;-63
2022/06/10 03:20:45;;;;;;;18.30;10.15;;;11.20;99.90;;;;;;4990438;28;20046;-64
2022/06/10 03:23:26;;;;;;;16.67;11.23;;;11.10;99.90;;;;;;5032786;28;20530;-63
2022/06/10 03:26:14;;;;;;;17.27;9.98;;;11.10;99.90;;;;;;5043982;28;20032;-64
2022/06/10 03:28:57;;;;;;;20.25;10.43;;;11.00;99.90;;;;;;5036811;28;20491;-63
2022/06/10 03:31:38;;;;;;;23.50;9.73;;;11.00;99.90;;;;;;5040922;28;20415;-63
2022/06/10 03:34:14;;;;;;;13.18;9.52;;;11.00;99.90;;;;;;5046753;28;20021;-64
2022/06/10 03:36:41;;;;;;;24.05;10.65;;;11.00;99.90;;;;;;5041121;28;20487;-63
2022/06/10 03:39:07;;;;;;;28.60;11.35;;;11.00;99.90;;;;;;5047616;28;20124;-63
2022/06/10 03:41:56;;;;;;;14.82;10.73;;;10.90;99.90;;;;;;5044001;28;20104;-63
2022/06/10 03:44:24;;;;;;;20.50;11.63;;;10.90;99.90;;;;;;5072048;22;20056;-63
2022/06/10 03:46:52;;;;;;;20.73;12.15;;;10.90;99.90;;;;;;5041934;28;20134;-63
2022/06/10 03:49:27;;;;;;;17.55;11.77;;;10.90;99.90;;;;;;5049775;28;20394;-64
2022/06/10 03:51:53;;;;;;;14.82;11.07;;;10.90;99.90;;;;;;5045028;28;20026;-63
2022/06/10 03:54:20;;;;;;;22.33;11.80;;;10.80;99.90;;;;;;5038348;28;20538;-62
2022/06/10 03:56:46;;;;;;;19.27;11.35;;;10.90;99.90;;;;;;5014381;28;20029;-63
2022/06/10 03:59:12;;;;;;;21.33;11.43;;;10.90;99.90;;;;;;5026055;28;20048;-64
2022/06/10 04:01:38;;;;;;;17.05;11.57;;;10.80;99.90;;;;;;5033457;28;20047;-62
2022/06/10 04:04:04;;;;;;;21.98;12.65;;;10.80;99.90;;;;;;5039754;28;20029;-62
2022/06/10 04:06:31;;;;;;;20.75;11.65;;;10.80;99.90;;;;;;5039687;28;20030;-62
2022/06/10 04:08:57;;;;;;;14.98;11.23;;;10.90;99.90;;;;;;5031741;28;20029;-63
2022/06/10 04:11:22;;;;;;;17.52;11.13;;;10.90;99.90;;;;;;5029329;28;20025;-61
2022/06/10 04:13:48;;;;;;;20.27;12.07;;;11.00;99.90;;;;;;5030673;28;20033;-63
2022/06/10 04:16:14;;;;;;;15.30;10.68;;;11.00;99.90;;;;;;5029946;28;20028;-64
2022/06/10 04:18:39;;;;;;;19.30;11.35;;;11.10;99.90;;;;;;5035303;28;20057;-64
2022/06/10 04:21:06;;;;;;;16.55;10.75;;;11.20;99.90;;;;;;5031979;28;20419;-63
2022/06/10 04:23:32;;;;;;;18.27;11.35;;;11.20;99.90;;;;;;5027780;28;20041;-63
2022/06/10 04:25:58;;;;;;;15.18;10.90;;;11.30;99.90;;;;;;5031577;28;20025;-63
2022/06/10 04:28:23;;;;;;;18.50;10.68;;;11.30;99.90;;;;;;5041938;28;20064;-64
2022/06/10 04:30:51;;;;;;;14.63;10.43;;;11.40;99.90;;;;;;5030900;28;20075;-64
2022/06/10 04:33:18;;;;;;;15.98;10.13;;;11.40;99.90;;;;;;5031693;28;20029;-63
2022/06/10 04:35:46;;;;;;;16.13;9.60;;;11.50;99.90;;;;;;5036415;28;20040;-63
2022/06/10 04:38:14;;;;;;;15.32;11.02;;;11.60;99.90;;;;;;5029937;28;20022;-64
2022/06/10 04:40:40;;;;;;;19.30;11.63;;;11.60;99.90;;;;;;5013817;28;20044;-62
2022/06/10 04:43:07;;;;;;;18.67;10.98;;;11.70;99.90;;;;;;5035499;28;20384;-63
2022/06/10 04:45:44;;;;;;;17.58;11.27;;;11.80;99.90;;;;;;5034988;28;20094;-63
2022/06/10 04:48:11;;;;;;;21.02;11.23;;;11.90;99.90;;;;;;5031954;28;20038;-63
2022/06/10 04:50:37;;;;;;;20.70;11.82;;;12.00;99.90;;;;;;5030870;28;20025;-64
2022/06/10 04:53:03;;;;;;;21.50;12.68;;;12.00;99.90;;;;;;5035451;28;20029;-64
2022/06/10 04:55:28;;;;;;;19.58;11.45;;;12.10;99.90;;;;;;5032233;28;20029;-64
2022/06/10 04:57:54;;;;;;;21.10;12.18;;;12.20;99.90;;;;;;5033526;28;20483;-63
2022/06/10 05:00:27;;;;;;;17.17;10.35;;;12.40;99.90;;;;;;5027557;28;20025;-63
2022/06/10 05:02:52;;;;;;;16.42;11.18;;;12.50;99.90;;;;;;5029052;28;20029;-64
2022/06/10 05:05:18;;;;;;;22.30;12.32;;;12.60;99.90;;;;;;5029317;28;20031;-62
2022/06/10 05:07:43;;;;;;;19.88;12.05;;;12.70;99.90;;;;;;5033447;28;20037;-63
2022/06/10 05:10:12;;;;;;;25.42;12.65;;;12.80;99.90;;;;;;5031346;28;20034;-64
2022/06/10 05:12:37;;;;;;;21.60;13.07;;;12.90;99.90;;;;;;5028451;28;20503;-61
2022/06/10 05:15:03;;;;;;;23.10;10.65;;;13.00;99.90;;;;;;5029069;28;20033;-62
2022/06/10 05:17:28;;;;;;;16.27;10.55;;;13.10;99.90;;;;;;5032302;28;20084;-63
2022/06/10 05:19:54;;;;;;;17.30;10.40;;;13.10;99.90;;;;;;5031794;28;20030;-64
2022/06/10 05:22:20;;;;;;;18.73;10.68;;;13.10;99.90;;;;;;5031136;28;20102;-63
2022/06/10 05:24:45;;;;;;;17.35;9.35;;;13.10;99.90;;;;;;5031632;28;20029;-63
2022/06/10 05:27:11;;;;;;;19.67;9.50;;;13.20;99.90;;;;;;5036501;28;20033;-63
2022/06/10 05:29:36;;;;;;;18.48;8.43;;;13.30;99.90;;;;;;5029226;28;20033;-64
2022/06/10 05:32:03;;;;;;;13.63;8.45;;;13.30;99.90;;;;;;5027409;28;20036;-64
2022/06/10 05:34:47;;;;;;;16.60;9.77;;;13.50;99.90;;;;;;5030557;28;20035;-64
2022/06/10 05:37:20;;;;;;;20.13;9.10;;;13.60;99.90;;;;;;5031274;28;20116;-64
2022/06/10 05:39:45;;;;;;;20.05;9.35;;;13.80;99.90;;;;;;5028571;28;20041;-64
2022/06/10 05:42:11;;;;;;;12.55;8.60;;;13.90;99.90;;;;;;5029979;28;20051;-63
2022/06/10 05:44:40;;;;;;;16.55;8.63;;;14.10;99.90;;;;;;5033177;28;20436;-65
2022/06/10 05:47:10;;;;;;;17.35;8.68;;;14.20;99.90;;;;;;5025913;28;20022;-64
2022/06/10 05:49:38;;;;;;;13.95;5.45;;;14.30;99.90;;;;;;5024515;28;20037;-63
2022/06/10 05:52:06;;;;;;;17.08;6.13;;;14.50;99.90;;;;;;5036879;28;20104;-64
2022/06/10 05:54:33;;;;;;;9.52;4.57;;;14.60;99.90;;;;;;5025841;28;20060;-64
2022/06/10 05:56:59;;;;;;;8.23;4.53;;;14.70;99.90;;;;;;5035771;28;20013;-64
2022/06/10 05:59:29;;;;;;;12.48;4.75;;;14.80;99.90;;;;;;5029341;28;20044;-62
2022/06/10 06:01:55;;;;;;;9.77;4.03;;;14.90;99.90;;;;;;5032628;28;20042;-64
2022/06/10 06:04:21;;;;;;;8.63;4.18;;;15.00;99.90;;;;;;5030554;28;20494;-64
2022/06/10 06:06:46;;;;;;;9.20;4.28;;;15.10;99.90;;;;;;5024138;28;20087;-63
2022/06/10 06:09:14;;;;;;;12.38;4.20;;;15.10;99.90;;;;;;5028026;28;20025;-63
2022/06/10 06:11:40;;;;;;;9.45;3.65;;;15.10;99.90;;;;;;5028474;28;20032;-63
2022/06/10 06:14:06;;;;;;;13.38;4.65;;;15.20;99.90;;;;;;5035152;28;20025;-61
2022/06/10 06:16:32;;;;;;;8.57;3.72;;;15.10;99.90;;;;;;5029505;28;20025;-63
2022/06/10 06:18:58;;;;;;;10.45;3.60;;;15.10;99.90;;;;;;5019848;28;20034;-64
2022/06/10 06:21:23;;;;;;;4.72;3.33;;;15.10;99.90;;;;;;5024209;28;20102;-63
2022/06/10 06:23:49;;;;;;;12.90;3.78;;;15.10;99.90;;;;;;5025698;28;20395;-64
2022/06/10 06:26:15;;;;;;;6.82;3.50;;;15.20;99.90;;;;;;5027156;28;20028;-63
2022/06/10 06:28:42;;;;;;;9.02;3.65;;;15.20;99.90;;;;;;5034639;28;20120;-63
2022/06/10 06:31:09;;;;;;;9.05;3.55;;;15.30;99.90;;;;;;5028206;28;20048;-63
2022/06/10 06:33:35;;;;;;;12.63;3.85;;;15.40;99.90;;;;;;5035110;28;20193;-63
2022/06/10 06:36:01;;;;;;;10.60;4.07;;;15.40;99.90;;;;;;5022527;28;20117;-63
2022/06/10 06:38:28;;;;;;;17.70;4.65;;;15.50;99.90;;;;;;5027014;28;20684;-63
2022/06/10 06:40:53;;;;;;;13.60;3.70;;;15.60;99.90;;;;;;5023604;28;20071;-63
2022/06/10 06:43:19;;;;;;;9.30;3.90;;;15.70;99.90;;;;;;5021667;28;20482;-65
2022/06/10 06:45:45;;;;;;;8.82;3.58;;;15.80;99.90;;;;;;5026517;28;20028;-63
2022/06/10 06:48:11;;;;;;;9.48;3.47;;;15.80;99.90;;;;;;5022654;28;20036;-64
2022/06/10 06:50:45;;;;;;;10.23;4.00;;;15.90;99.90;;;;;;5022762;28;20058;-63
2022/06/10 06:53:10;;;;;;;9.75;3.90;;;16.00;99.90;;;;;;5027459;28;20483;-63
2022/06/10 06:55:37;;;;;;;13.75;3.83;;;16.10;99.90;;;;;;5030159;28;20033;-63
2022/06/10 06:58:05;;;;;;;16.33;3.65;;;16.20;99.90;;;;;;5023401;28;20128;-64
2022/06/10 07:00:31;;;;;;;9.75;3.28;;;16.30;99.90;;;;;;5027176;28;20037;-64
2022/06/10 07:02:56;;;;;;;7.30;3.10;;;16.40;99.90;;;;;;5025811;28;20030;-64
2022/06/10 07:05:22;;;;;;;15.60;3.40;;;16.50;99.90;;;;;;5032558;28;20057;-64
2022/06/10 07:07:48;;;;;;;6.80;3.00;;;16.50;99.90;;;;;;5041904;28;20060;-64
2022/06/10 07:10:16;;;;;;;6.63;2.97;;;16.50;99.90;;;;;;5033617;28;20049;-65
2022/06/10 07:12:42;;;;;;;9.38;3.05;;;16.60;99.90;;;;;;5037148;28;20096;-61
2022/06/10 07:15:08;;;;;;;11.15;2.72;;;16.70;99.90;;;;;;5033132;28;20101;-63
2022/06/10 07:17:34;;;;;;;8.38;3.35;;;16.80;99.90;;;;;;5043599;28;20032;-63
2022/06/10 07:20:00;;;;;;;9.57;3.08;;;16.90;99.90;;;;;;5047231;28;20033;-63
2022/06/10 07:22:26;;;;;;;13.57;2.90;;;16.90;99.90;;;;;;5038774;28;20483;-64
2022/06/10 07:24:53;;;;;;;8.98;3.58;;;17.00;99.90;;;;;;5043176;28;20040;-64
2022/06/10 07:27:19;;;;;;;10.60;2.55;;;17.10;99.90;;;;;;5045690;28;20037;-63
2022/06/10 07:29:45;;;;;;;8.82;2.85;;;17.10;99.90;;;;;;5033986;28;20029;-63
2022/06/10 07:32:11;;;;;;;11.05;2.35;;;17.20;99.90;;;;;;5023769;28;20655;-64
2022/06/10 07:34:36;;;;;;;9.27;2.28;;;17.20;99.90;;;;;;5026260;28;20025;-62
2022/06/10 07:37:02;;;;;;;8.82;2.40;;;17.30;99.90;;;;;;5025030;28;20051;-62
2022/06/10 07:39:28;;;;;;;17.15;2.70;;;17.30;99.90;;;;;;5025299;28;20088;-64
2022/06/10 07:41:57;;;;;;;15.55;3.35;;;17.30;99.90;;;;;;5026278;28;20503;-63
2022/06/10 07:44:29;;;;;;;10.18;1.73;;;17.40;99.90;;;;;;5025814;28;20029;-64
2022/06/10 07:46:57;;;;;;;10.65;2.35;;;17.60;99.90;;;;;;5024093;28;20033;-63
2022/06/10 07:49:23;;;;;;;7.43;1.92;;;17.80;99.90;;;;;;5036503;28;20017;-61
2022/06/10 07:51:49;;;;;;;6.53;1.77;;;17.90;99.90;;;;;;5051419;28;20574;-63
2022/06/10 07:54:15;;;;;;;10.15;1.90;;;18.00;99.90;;;;;;5040360;28;20029;-63
2022/06/10 07:56:41;;;;;;;5.75;2.15;;;18.10;99.90;;;;;;5028679;28;20036;-63
2022/06/10 07:59:07;;;;;;;8.13;2.50;;;18.30;99.90;;;;;;5024813;28;20025;-62
2022/06/10 08:01:34;;;;;;;9.98;2.38;;;18.30;99.90;;;;;;5024085;28;20049;-63
2022/06/10 08:03:59;;;;;;;10.13;2.92;;;18.40;99.90;;;;;;5025057;28;20833;-63
2022/06/10 08:06:28;;;;;;;9.15;2.17;;;18.60;99.90;;;;;;5024129;28;20025;-62
2022/06/10 08:08:54;;;;;;;12.38;2.60;;;18.80;99.90;;;;;;5022155;28;20045;-62
2022/06/10 08:11:20;;;;;;;6.95;1.88;;;18.90;99.90;;;;;;5024422;28;20052;-60
2022/06/10 08:13:46;;;;;;;6.47;2.13;;;19.00;99.90;;;;;;5021659;28;20475;-64
2022/06/10 08:16:13;;;;;;;10.35;2.67;;;19.00;99.90;;;;;;5019861;28;20036;-63
2022/06/10 08:18:39;;;;;;;7.55;2.33;;;19.20;99.90;;;;;;5021026;28;20104;-63
2022/06/10 08:23:50;;;;;;;8.35;1.52;;;19.60;99.90;;;;;;5021958;28;20080;-64
2022/06/10 08:26:16;;;;;;;3.92;1.48;;;19.60;99.90;;;;;;5023516;28;20032;-62
2022/06/10 08:28:45;;;;;;;8.55;1.30;;;19.50;99.90;;;;;;5024621;28;20368;-63
2022/06/10 08:31:11;;;;;;;9.80;2.00;;;19.30;99.90;;;;;;5023404;28;20034;-64
2022/06/10 08:33:36;;;;;;;11.13;2.42;;;19.50;99.90;;;;;;5022156;28;20088;-63
2022/06/10 08:36:03;;;;;;;5.57;2.13;;;19.50;99.90;;;;;;5024119;28;20053;-61
2022/06/10 08:38:30;;;;;;;5.07;1.30;;;19.50;99.90;;;;;;5024933;28;20037;-63
2022/06/10 08:41:33;;;;;;;7.28;1.95;;;19.50;99.90;;;;;;5023409;28;20605;-64
2022/06/10 08:44:07;;;;;;;9.63;1.42;;;19.50;99.90;;;;;;5025224;28;20045;-65
2022/06/10 08:46:53;;;;;;;8.40;1.90;;;19.50;99.90;;;;;;5025481;28;20028;-64
2022/06/10 08:49:42;;;;;;;6.47;1.67;;;19.60;99.90;;;;;;5030449;28;20375;-65
2022/06/10 08:52:21;;;;;;;9.30;2.08;;;19.70;99.90;;;;;;5006698;28;20552;-63
2022/06/10 08:55:09;;;;;;;9.82;2.03;;;19.80;99.90;;;;;;5021548;28;20121;-63
2022/06/10 08:57:46;;;;;;;10.25;2.35;;;19.90;99.90;;;;;;5022627;28;20104;-63
2022/06/10 09:00:18;;;;;;;9.68;1.58;;;20.00;99.90;;;;;;5034157;28;20043;-63
2022/06/10 09:03:07;;;;;;;5.32;1.30;;;20.00;99.90;;;;;;5025666;28;20150;-63
2022/06/10 09:05:40;;;;;;;7.88;1.30;;;19.90;99.90;;;;;;5025757;28;20438;-64
2022/06/10 09:08:16;;;;;;;9.63;1.58;;;19.90;99.90;;;;;;5031129;28;20029;-64
2022/06/10 09:10:50;;;;;;;6.85;1.13;;;20.00;99.90;;;;;;5026757;28;20171;-62
2022/06/10 09:13:40;;;;;;;3.80;1.05;;;20.00;99.90;;;;;;5027876;28;20021;-63
2022/06/10 09:16:27;;;;;;;6.55;1.77;;;20.00;99.90;;;;;;5035466;28;20021;-62
2022/06/10 09:19:34;;;;;;;4.85;1.55;;;20.00;99.90;;;;;;5026013;28;20471;-64
2022/06/10 09:22:13;;;;;;;8.90;1.60;;;20.30;99.90;;;;;;5031784;28;20036;-63
2022/06/10 09:25:09;;;;;;;8.43;1.30;;;20.40;99.90;;;;;;5017634;28;20021;-63
2022/06/10 09:27:41;;;;;;;8.27;1.40;;;20.50;99.90;;;;;;5042744;28;20025;-64
2022/06/10 09:30:11;;;;;;;8.77;1.67;;;20.50;99.90;;;;;;5032874;28;20025;-63
2022/06/10 09:33:00;;;;;;;3.40;1.27;;;20.60;99.90;;;;;;5031649;28;20037;-64
2022/06/10 09:35:34;;;;;;;9.02;1.40;;;20.50;99.90;;;;;;5044992;28;20041;-63
2022/06/10 09:38:13;;;;;;;5.90;1.30;;;20.50;99.90;;;;;;5043226;28;20029;-65
2022/06/10 09:40:44;;;;;;;5.18;1.40;;;20.60;99.90;;;;;;5043318;28;20032;-64
2022/06/10 09:43:36;;;;;;;5.32;1.25;;;20.30;99.90;;;;;;5036622;28;20029;-64
2022/06/10 09:46:26;;;;;;;8.13;1.83;;;20.50;99.90;;;;;;5080813;22;20036;-56
2022/06/10 09:49:12;;;;;;;7.93;1.15;;;20.40;99.90;;;;;;5068928;28;20017;-54
2022/06/10 09:51:46;;;;;;;4.47;1.23;;;20.40;99.90;;;;;;5065839;28;20032;-57
2022/06/10 09:54:24;;;;;;;5.07;1.25;;;20.50;99.90;;;;;;5062970;28;20069;-56
2022/06/10 09:56:58;;;;;;;9.48;1.20;;;20.60;99.90;;;;;;5065409;28;20040;-55
2022/06/10 09:59:26;;;;;;;;;;;20.40;99.90;;;;;;5068312;28;20064;-52
2022/06/10 10:02:19;;;;;;;4.43;1.48;;;20.40;99.90;;;;;;5065411;28;19908;-52
2022/06/10 10:04:57;;;;;;;9.07;1.33;;;20.60;99.90;;;;;;5062077;28;20048;-54
2022/06/10 10:07:45;;;;;;;8.95;1.30;;;21.00;99.90;;;;;;5066873;28;20056;-55
2022/06/10 10:10:36;;;;;;;5.88;1.13;;;21.30;99.90;;;;;;5066727;28;20651;-54
2022/06/10 10:13:26;;;;;;;9.40;1.50;;;21.40;99.90;;;;;;5061805;28;20027;-56
2022/06/10 10:16:00;;;;;;;13.98;1.20;;;21.30;99.90;;;;;;5065521;28;20032;-55
2022/06/10 10:18:33;;;;;;;6.22;1.83;;;21.20;99.90;;;;;;5068160;28;20024;-55
2022/06/10 10:21:09;;;;;;;6.82;2.53;;;21.30;99.90;;;;;;5067924;28;20031;-54
2022/06/10 10:23:53;;;;;;;6.35;1.40;;;21.00;99.90;;;;;;5060603;28;20115;-51
2022/06/10 10:26:41;;;;;;;2.55;1.00;;;21.20;99.90;;;;;;5064080;28;20365;-54
2022/06/10 10:29:36;;;;;;;11.65;1.35;;;21.40;99.90;;;;;;5064567;28;20039;-55
2022/06/10 10:32:09;;;;;;;4.25;1.10;;;21.60;99.90;;;;;;5060442;28;20032;-55
2022/06/10 10:34:37;;;;;;;8.20;1.00;;;21.60;99.90;;;;;;5063684;28;20115;-57
2022/06/10 10:37:17;;;;;;;5.82;1.08;;;21.50;99.90;;;;;;5073659;28;20258;-56
2022/06/10 10:39:53;;;;;;;4.93;1.33;;;21.40;99.90;;;;;;5067201;28;20105;-58
2022/06/10 10:42:23;;;;;;;7.57;1.08;;;21.10;99.90;;;;;;5068300;28;20028;-53
2022/06/10 10:45:04;;;;;;;5.57;1.02;;;21.20;99.90;;;;;;5066389;28;20036;-53
2022/06/10 10:47:31;;;;;;;8.13;0.90;;;21.40;99.90;;;;;;5068585;28;20025;-52
2022/06/10 10:50:03;;;;;;;3.22;0.93;;;21.40;99.90;;;;;;5067310;28;20052;-54
2022/06/10 10:52:35;;;;;;;4.55;0.88;;;21.50;99.90;;;;;;5066589;28;20780;-54
2022/06/10 10:55:24;;;;;;;5.45;0.93;;;21.30;99.90;;;;;;5065216;28;20032;-55
2022/06/10 10:58:08;;;;;;;4.35;1.30;;;21.40;99.90;;;;;;5068698;28;20050;-51
2022/06/10 11:00:54;;;;;;;6.23;1.10;;;21.60;99.90;;;;;;5065259;28;20437;-53
2022/06/10 11:03:27;;;;;;;1.60;0.90;;;21.70;99.90;;;;;;5065711;28;20288;-52
2022/06/10 11:05:54;;;;;;;2.13;0.80;;;21.80;99.90;;;;;;5067995;28;20566;-55
2022/06/10 11:08:21;;;;;;;7.90;0.90;;;22.00;99.90;;;;;;5068395;28;20024;-56
2022/06/10 11:10:55;;;;;;;4.88;0.80;;;22.00;99.90;;;;;;5067232;28;20037;-55
2022/06/10 11:13:31;;;;;;;7.20;1.30;;;22.00;99.90;;;;;;5067074;28;20410;-56
2022/06/10 11:16:17;;;;;;;3.88;0.88;;;22.00;99.90;;;;;;5063214;28;20021;-53
2022/06/10 11:18:46;;;;;;;4.93;1.00;;;22.00;99.90;;;;;;5072395;28;20084;-56
2022/06/10 11:21:13;;;;;;;4.00;0.70;;;22.00;99.90;;;;;;5080357;28;20078;-55
2022/06/10 11:23:53;;;;;;;5.35;0.75;;;22.10;99.90;;;;;;5071717;28;20028;-54
2022/06/10 11:26:21;;;;;;;5.00;0.73;;;22.10;99.90;;;;;;5067647;28;20027;-54
2022/06/10 11:28:48;;;;;;;5.05;0.93;;;22.10;99.90;;;;;;5067369;28;20227;-55
2022/06/10 11:31:28;;;;;;;1.80;0.60;;;22.10;99.90;;;;;;5067977;28;20470;-55
2022/06/10 11:33:57;;;;;;;1.35;0.60;;;22.10;99.90;;;;;;5067903;28;20052;-54
2022/06/10 11:36:45;;;;;;;1.42;0.73;;;22.10;99.90;;;;;;5067660;28;20078;-55
2022/06/10 11:39:33;;;;;;;3.20;0.85;;;22.20;99.90;;;;;;5061884;28;20035;-55
2022/06/10 11:42:16;;;;;;;5.82;1.63;;;22.10;99.90;;;;;;5067069;28;20578;-55
2022/06/10 11:44:53;;;;;;;3.25;0.90;;;22.20;99.90;;;;;;5063261;28;20371;-56
2022/06/10 11:47:29;;;;;;;4.20;0.88;;;22.30;99.90;;;;;;5066798;28;20461;-56
2022/06/10 11:50:19;;;;;;;5.03;0.90;;;22.60;99.90;;;;;;5057913;28;20536;-56
2022/06/10 11:53:18;;;;;;;7.53;1.17;;;22.80;99.90;;;;;;5057051;28;20027;-55
2022/06/10 11:55:49;;;;;;;6.82;1.27;;;23.10;99.90;;;;;;5059756;28;20674;-58
2022/06/10 12:01:13;;;;;;;9.15;1.38;;;22.90;99.90;;;;;;5059838;28;20092;-55
2022/06/10 12:03:46;;;;;;;4.38;0.75;;;23.10;99.90;;;;;;5059442;28;20485;-55
2022/06/10 12:06:24;;;;;;;2.83;0.88;;;23.30;99.90;;;;;;5063011;28;20032;-55
2022/06/10 12:09:17;;;;;;;3.15;0.77;;;23.30;99.90;;;;;;5068436;28;21299;-55
2022/06/10 12:11:52;;;;;;;2.42;0.70;;;23.70;99.90;;;;;;5053092;28;20752;-55
2022/06/10 12:14:42;;;;;;;2.65;0.85;;;24.00;99.90;;;;;;5061107;28;20105;-53
2022/06/10 12:17:25;;;;;;;5.05;0.90;;;24.10;99.90;;;;;;5067052;28;20544;-55
2022/06/10 12:20:22;;;;;;;2.17;0.75;;;24.10;99.90;;;;;;5066747;28;20017;-56
2022/06/10 12:22:48;;;;;;;4.00;0.80;;;23.80;99.90;;;;;;5065484;28;20229;-57
2022/06/10 12:25:28;;;;;;;2.92;0.73;;;23.70;99.90;;;;;;5067749;28;22097;-56
2022/06/10 12:28:20;;;;;;;5.75;1.30;;;24.00;99.90;;;;;;5063169;28;20028;-56
2022/06/10 12:30:50;;;;;;;4.50;1.27;;;24.10;99.90;;;;;;5057864;28;20039;-55
2022/06/10 12:33:38;;;;;;;4.32;0.98;;;24.40;99.90;;;;;;5069069;28;20119;-55
2022/06/10 12:36:06;;;;;;;5.85;1.00;;;24.30;99.90;;;;;;5052159;28;20040;-57
2022/06/10 12:38:38;;;;;;;3.75;0.68;;;24.20;99.90;;;;;;5070897;28;20020;-54
2022/06/10 12:41:22;;;;;;;10.60;1.35;;;24.40;99.90;;;;;;5063022;28;20089;-55
2022/06/10 12:44:13;;;;;;;5.55;0.95;;;24.50;99.90;;;;;;5063288;28;20108;-54
2022/06/10 12:46:51;;;;;;;4.30;0.93;;;25.00;99.90;;;;;;5068590;28;20042;-58
2022/06/10 12:49:31;;;;;;;1.92;0.70;;;25.30;99.90;;;;;;5067220;28;20039;-54
2022/06/10 12:52:10;;;;;;;3.08;0.82;;;25.40;99.90;;;;;;5065654;28;20021;-56
2022/06/10 12:55:00;;;;;;;1.73;0.60;;;25.00;99.90;;;;;;5064750;28;20070;-56
2022/06/10 12:57:40;;;;;;;3.25;1.08;;;24.90;99.90;;;;;;5070189;28;20031;-54
2022/06/10 13:00:17;;;;;;;4.10;0.88;;;24.70;99.90;;;;;;5069949;28;20477;-56
2022/06/10 13:02:51;;;;;;;10.00;0.80;;;24.60;99.90;;;;;;5071890;28;20573;-58
2022/06/10 13:05:21;;;;;;;2.97;0.65;;;24.60;99.90;;;;;;5076307;28;20041;-56
2022/06/10 13:07:49;;;;;;;4.00;0.85;;;24.30;99.90;;;;;;5074656;28;20650;-57
2022/06/10 13:10:38;;;;;;;4.88;1.15;;;24.40;99.90;;;;;;5062454;28;20119;-57
2022/06/10 13:13:10;;;;;;;2.00;0.65;;;24.60;99.90;;;;;;5065115;28;20510;-56
2022/06/10 13:15:36;;;;;;;1.67;0.70;;;24.80;99.90;;;;;;5066662;28;20028;-56
2022/06/10 13:18:28;;;;;;;2.70;0.80;;;24.80;99.90;;;;;;5061780;28;20024;-55
2022/06/10 13:20:54;;;;;;;2.90;1.00;;;25.20;99.90;;;;;;5060267;28;20020;-56